createdAt,value
2022-08-28T00:01:41.052Z,101065.28
2022-08-28T00:04:26.649Z,101079.28
2022-08-28T00:07:12.243Z,101074.97
2022-08-28T00:09:57.172Z,101084.53
2022-08-28T00:12:43.664Z,101092.41
2022-08-28T00:15:34.698Z,101081.94
2022-08-28T00:18:21.198Z,101079.34
2022-08-28T00:21:06.366Z,101083.72
2022-08-28T00:23:51.589Z,101089.88
2022-08-28T00:26:36.892Z,101089.06
2022-08-28T00:29:22.949Z,101101.28
2022-08-28T00:32:08.188Z,101089.09
2022-08-28T00:34:53.359Z,101096.06
2022-08-28T00:37:38.982Z,101087.31
2022-08-28T00:40:28.678Z,101088.25
2022-08-28T00:43:51.312Z,101097.00
2022-08-28T00:46:36.890Z,101096.13
2022-08-28T00:49:30.318Z,101092.69
2022-08-28T00:52:15.822Z,101089.22
2022-08-28T00:55:14.201Z,101078.72
2022-08-28T00:57:59.884Z,101080.50
2022-08-28T01:00:44.745Z,101083.97
2022-08-28T01:03:29.911Z,101085.69
2022-08-28T01:06:17.862Z,101078.75
2022-08-28T01:09:03.773Z,101081.34
2022-08-28T01:11:51.385Z,101085.66
2022-08-28T01:14:38.920Z,101083.91
2022-08-28T01:17:25.828Z,101080.38
2022-08-28T01:20:16.392Z,101073.41
2022-08-28T01:23:26.429Z,101078.59
2022-08-28T01:26:11.925Z,101080.34
2022-08-28T01:28:59.576Z,101080.34
2022-08-28T01:31:44.599Z,101076.84
2022-08-28T01:34:30.097Z,101078.59
2022-08-28T01:37:15.031Z,101076.00
2022-08-28T01:40:00.416Z,101092.59
2022-08-28T01:42:46.045Z,101086.50
2022-08-28T01:45:31.257Z,101092.59
2022-08-28T01:48:17.092Z,101091.75
2022-08-28T01:51:05.185Z,101096.09
2022-08-28T01:53:50.209Z,101096.09
2022-08-28T01:56:35.655Z,101102.19
2022-08-28T01:59:21.740Z,101105.72
2022-08-28T02:02:06.983Z,101103.97
2022-08-28T02:04:52.457Z,101110.06
2022-08-28T02:07:38.067Z,101111.81
2022-08-28T02:10:25.035Z,101105.72
2022-08-28T02:13:11.917Z,101107.47
2022-08-28T02:15:57.636Z,101121.44
2022-08-28T02:18:43.244Z,101123.16
2022-08-28T02:21:28.525Z,101124.06
2022-08-28T02:24:14.331Z,101121.41
2022-08-28T02:26:59.204Z,101126.63
2022-08-28T02:29:44.678Z,101120.53
2022-08-28T02:32:30.111Z,101123.16
2022-08-28T02:35:17.961Z,101125.78
2022-08-28T02:38:03.090Z,101131.00
2022-08-28T02:40:48.581Z,101124.91
2022-08-28T02:43:33.998Z,101124.03
2022-08-28T02:46:19.255Z,101125.75
2022-08-28T02:49:04.357Z,101125.78
2022-08-28T02:51:50.476Z,101132.75
2022-08-28T02:54:35.743Z,101137.97
2022-08-28T02:57:20.918Z,101125.78
2022-08-28T03:00:08.469Z,101126.63
2022-08-28T03:02:54.005Z,101131.00
2022-08-28T03:05:39.206Z,101132.72
2022-08-28T03:08:27.350Z,101126.63
2022-08-28T03:11:12.858Z,101145.81
2022-08-28T03:13:57.897Z,101144.06
2022-08-28T03:16:42.911Z,101146.66
2022-08-28T03:19:28.238Z,101142.34
2022-08-28T03:22:13.430Z,101138.84
2022-08-28T03:24:58.573Z,101151.88
2022-08-28T03:27:44.120Z,101146.69
2022-08-28T03:30:29.681Z,101154.50
2022-08-28T03:33:14.912Z,101144.03
2022-08-28T03:36:00.885Z,101152.75
2022-08-28T03:38:51.288Z,101145.81
2022-08-28T03:41:36.480Z,101155.38
2022-08-28T03:44:21.759Z,101151.03
2022-08-28T03:47:06.609Z,101155.38
2022-08-28T03:49:56.136Z,101149.28
2022-08-28T03:52:41.144Z,101146.66
2022-08-28T03:55:26.603Z,101154.47
2022-08-28T03:58:11.945Z,101157.94
2022-08-28T04:01:04.189Z,101147.50
2022-08-28T04:03:49.917Z,101157.94
2022-08-28T04:06:36.155Z,101163.13
2022-08-28T04:09:21.186Z,101158.75
2022-08-28T04:12:08.209Z,101157.88
2022-08-28T04:14:53.482Z,101164.81
2022-08-28T04:17:40.084Z,101163.09
2022-08-28T04:20:25.164Z,101168.28
2022-08-28T04:23:10.029Z,101179.53
2022-08-28T04:25:55.239Z,101174.31
2022-08-28T04:28:40.916Z,101174.34
2022-08-28T04:31:32.054Z,101169.19
2022-08-28T04:34:17.921Z,101168.34
2022-08-28T04:37:04.059Z,101167.47
2022-08-28T04:39:49.576Z,101170.91
2022-08-28T04:42:34.425Z,101179.63
2022-08-28T04:45:19.814Z,101183.94
2022-08-28T04:48:05.466Z,101178.75
2022-08-28T04:50:55.371Z,101182.22
2022-08-28T04:53:41.205Z,101179.63
2022-08-28T04:56:26.280Z,101181.38
2022-08-28T04:59:11.366Z,101185.78
2022-08-28T05:01:56.493Z,101185.75
2022-08-28T05:04:41.769Z,101184.03
2022-08-28T05:07:26.741Z,101178.84
2022-08-28T05:10:11.605Z,101191.88
2022-08-28T05:12:56.389Z,101189.28
2022-08-28T05:15:43.641Z,101192.75
2022-08-28T05:18:29.877Z,101186.66
2022-08-28T05:21:22.949Z,101176.22
2022-08-28T05:24:08.748Z,101188.41
2022-08-28T05:26:53.983Z,101195.38
2022-08-28T05:29:39.313Z,101199.72
2022-08-28T05:32:24.283Z,101199.72
2022-08-28T05:35:09.285Z,101199.75
2022-08-28T05:37:54.546Z,101194.50
2022-08-28T05:40:44.876Z,101206.69
2022-08-28T05:43:31.012Z,101211.03
2022-08-28T05:46:16.808Z,101206.69
2022-08-28T05:49:01.864Z,101209.31
2022-08-28T05:51:48.736Z,101211.91
2022-08-28T05:54:33.720Z,101213.66
2022-08-28T05:57:18.504Z,101209.31
2022-08-28T06:00:04.436Z,101213.69
2022-08-28T06:02:49.915Z,101205.00
2022-08-28T06:05:35.675Z,101205.88
2022-08-28T06:08:21.207Z,101206.72
2022-08-28T06:11:06.789Z,101212.84
2022-08-28T06:13:52.910Z,101208.50
2022-08-28T06:16:41.387Z,101203.25
2022-08-28T06:19:28.999Z,101209.34
2022-08-28T06:22:13.979Z,101198.03
2022-08-28T06:24:58.929Z,101200.66
2022-08-28T06:27:44.339Z,101207.63
2022-08-28T06:30:29.649Z,101216.31
2022-08-28T06:33:15.716Z,101220.69
2022-08-28T06:36:04.532Z,101229.41
2022-08-28T06:38:49.721Z,101224.19
2022-08-28T06:41:35.739Z,101236.34
2022-08-28T06:44:21.804Z,101218.97
2022-08-28T06:47:07.011Z,101224.22
2022-08-28T06:49:52.387Z,101210.25
2022-08-28T06:52:37.823Z,101215.44
2022-08-28T06:55:26.445Z,101212.84
2022-08-28T06:58:12.805Z,101202.34
2022-08-28T07:01:06.734Z,101202.31
2022-08-28T07:03:54.378Z,101205.78
2022-08-28T07:06:42.649Z,101206.59
2022-08-28T07:09:27.714Z,101198.72
2022-08-28T07:12:17.869Z,101200.47
2022-08-28T07:15:03.984Z,101217.03
2022-08-28T07:17:49.043Z,101212.59
2022-08-28T07:20:34.440Z,101201.19
2022-08-28T07:23:19.301Z,101175.72
2022-08-28T07:26:07.325Z,101177.41
2022-08-28T07:28:59.503Z,101192.00
2022-08-28T07:31:54.922Z,101164.47
2022-08-28T07:34:40.283Z,101148.88
2022-08-28T07:37:25.864Z,101117.16
2022-08-28T07:40:12.135Z,101103.03
2022-08-28T07:42:57.508Z,101075.91
2022-08-28T07:45:43.286Z,101094.56
2022-08-28T07:48:28.612Z,101101.22
2022-08-28T07:51:13.946Z,101119.75
2022-08-28T07:53:59.129Z,101085.66
2022-08-28T07:56:44.252Z,101091.66
2022-08-28T07:59:34.177Z,101077.31
2022-08-28T08:02:22.283Z,101076.94
2022-08-28T08:05:10.241Z,101082.88
2022-08-28T08:07:56.729Z,101106.03
2022-08-28T08:10:41.620Z,101134.56
2022-08-28T08:13:27.217Z,101163.25
2022-08-28T08:16:18.697Z,101152.22
2022-08-28T08:19:04.216Z,101160.84
2022-08-28T08:21:54.912Z,101176.03
2022-08-28T08:24:40.606Z,101159.53
2022-08-28T08:27:26.429Z,101151.00
2022-08-28T08:30:12.126Z,101174.97
2022-08-28T08:32:57.447Z,101162.22
2022-08-28T08:35:42.974Z,101140.41
2022-08-28T08:38:29.865Z,101153.59
2022-08-28T08:41:24.400Z,101130.19
2022-08-28T08:44:23.246Z,101125.41
2022-08-28T08:47:27.541Z,101142.28
2022-08-28T08:50:22.814Z,101146.31
2022-08-28T08:53:23.353Z,101158.53
2022-08-28T08:56:13.617Z,101195.56
2022-08-28T08:59:00.073Z,101138.59
2022-08-28T09:01:55.212Z,101113.97
2022-08-28T09:04:40.476Z,101114.81
2022-08-28T09:07:25.886Z,101110.84
2022-08-28T09:10:12.643Z,101115.44
2022-08-28T09:13:03.155Z,101133.88
2022-08-28T09:15:50.837Z,101145.91
2022-08-28T09:18:36.418Z,101147.84
2022-08-28T09:21:40.063Z,101142.41
2022-08-28T09:24:29.098Z,101155.13
2022-08-28T09:27:31.242Z,101165.56
2022-08-28T09:30:30.110Z,101147.28
2022-08-28T09:33:27.497Z,101163.03
2022-08-28T09:36:24.094Z,101175.91
2022-08-28T09:39:26.335Z,101178.22
2022-08-28T09:42:22.562Z,101159.72
2022-08-28T09:45:23.263Z,101179.41
2022-08-28T09:48:24.201Z,101187.72
2022-08-28T09:51:10.654Z,101195.06
2022-08-28T09:54:04.637Z,101165.78
2022-08-28T09:56:50.520Z,101195.28
2022-08-28T09:59:35.289Z,101161.53
2022-08-28T10:02:29.625Z,101185.50
2022-08-28T10:05:18.740Z,101188.31
2022-08-28T10:08:32.641Z,101194.63
2022-08-28T10:11:32.891Z,101167.06
2022-08-28T10:14:28.238Z,101215.34
2022-08-28T10:17:50.817Z,101194.16
2022-08-28T10:21:03.665Z,101171.97
2022-08-28T10:24:03.968Z,101202.00
2022-08-28T10:27:07.435Z,101205.31
2022-08-28T10:30:07.852Z,101175.91
2022-08-28T10:33:01.458Z,101167.25
2022-08-28T10:35:55.874Z,101194.91
2022-08-28T10:38:53.135Z,101175.16
2022-08-28T10:41:49.949Z,101211.59
2022-08-28T10:45:01.173Z,101201.69
2022-08-28T10:47:51.322Z,101156.19
2022-08-28T10:51:04.892Z,101172.97
2022-08-28T10:53:55.982Z,101232.56
2022-08-28T10:56:46.111Z,101229.91
2022-08-28T10:59:42.672Z,101219.50
2022-08-28T11:02:29.956Z,101168.38
2022-08-28T11:05:21.471Z,101195.34
2022-08-28T11:08:10.922Z,101217.25
2022-08-28T11:10:58.473Z,101229.78
2022-08-28T11:13:56.940Z,101201.25
2022-08-28T11:16:46.917Z,101192.22
2022-08-28T11:19:50.275Z,101199.63
2022-08-28T11:22:41.801Z,101208.22
2022-08-28T11:25:48.067Z,101183.72
2022-08-28T11:28:36.271Z,101154.94
2022-08-28T11:31:29.022Z,101238.78
2022-08-28T11:34:57.065Z,101168.47
2022-08-28T11:37:45.438Z,101222.56
2022-08-28T11:40:30.775Z,101207.44
2022-08-28T11:43:16.471Z,101196.84
2022-08-28T11:46:11.080Z,101192.72
2022-08-28T11:48:59.071Z,101149.09
2022-08-28T11:51:53.118Z,101212.09
2022-08-28T11:54:59.759Z,101151.53
2022-08-28T12:00:59.245Z,101170.69
2022-08-28T12:03:55.107Z,101124.94
2022-08-28T12:06:45.660Z,101164.84
2022-08-28T12:09:45.013Z,101145.13
2022-08-28T12:12:44.927Z,101106.47
2022-08-28T12:15:38.756Z,101098.72
2022-08-28T12:18:39.325Z,101116.53
2022-08-28T12:21:27.955Z,101086.53
2022-08-28T12:24:21.706Z,101107.88
2022-08-28T12:27:07.860Z,101145.47
2022-08-28T12:29:58.666Z,101097.84
2022-08-28T12:32:58.882Z,101051.03
2022-08-28T12:35:44.228Z,101092.13
2022-08-28T12:38:33.157Z,101089.63
2022-08-28T12:41:19.455Z,101058.50
2022-08-28T12:44:06.411Z,101063.19
2022-08-28T12:46:52.337Z,101049.69
2022-08-28T12:49:37.981Z,101067.59
2022-08-28T12:52:26.122Z,101122.78
2022-08-28T12:55:11.476Z,101081.06
2022-08-28T12:57:57.086Z,101065.19
2022-08-28T13:00:54.720Z,101068.94
2022-08-28T13:03:49.786Z,101082.69
2022-08-28T13:06:39.158Z,101080.84
2022-08-28T13:09:27.476Z,101061.94
2022-08-28T13:12:23.809Z,101036.50
2022-08-28T13:15:50.129Z,101081.88
2022-08-28T13:18:52.207Z,101057.81
2022-08-28T13:21:46.379Z,101050.06
2022-08-28T13:24:34.701Z,101039.63
2022-08-28T13:27:23.379Z,101083.56
2022-08-28T13:30:14.633Z,101068.50
2022-08-28T13:33:03.458Z,101048.91
2022-08-28T13:35:49.423Z,101060.03
2022-08-28T13:38:35.171Z,101055.38
2022-08-28T13:41:20.504Z,101055.78
2022-08-28T13:44:07.018Z,101080.28
2022-08-28T13:46:52.311Z,101079.16
2022-08-28T13:49:39.417Z,101068.88
2022-08-28T13:52:24.812Z,101064.28
2022-08-28T13:55:10.221Z,101042.88
2022-08-28T13:57:55.525Z,101058.53
2022-08-28T14:00:45.017Z,101070.25
2022-08-28T14:03:30.355Z,101072.47
2022-08-28T14:06:17.407Z,101057.41
2022-08-28T14:09:02.692Z,101072.84
2022-08-28T14:11:48.609Z,101076.28
2022-08-28T14:14:34.796Z,101082.72
2022-08-28T14:17:20.314Z,101101.91
2022-08-28T14:20:06.444Z,101074.84
2022-08-28T14:22:51.815Z,101111.88
2022-08-28T14:25:44.294Z,101111.16
2022-08-28T14:28:29.362Z,101091.50
2022-08-28T14:31:15.076Z,101054.16
2022-08-28T14:34:00.349Z,101048.25
2022-08-28T14:36:46.653Z,101118.38
2022-08-28T14:39:31.877Z,101063.72
2022-08-28T14:42:17.960Z,101064.50
2022-08-28T14:45:03.947Z,101069.59
2022-08-28T14:47:49.074Z,101060.22
2022-08-28T14:50:39.287Z,101045.53
2022-08-28T14:53:24.436Z,101062.94
2022-08-28T14:56:10.939Z,101047.94
2022-08-28T14:58:58.149Z,101045.59
2022-08-28T15:01:43.616Z,101054.56
2022-08-28T15:04:32.049Z,101078.13
2022-08-28T15:07:17.387Z,101047.03
2022-08-28T15:10:02.278Z,101076.56
2022-08-28T15:12:47.649Z,101087.91
2022-08-28T15:15:33.006Z,101108.38
2022-08-28T15:18:17.928Z,101062.38
2022-08-28T15:21:03.398Z,101086.38
2022-08-28T15:23:49.609Z,101110.97
2022-08-28T15:26:35.151Z,101091.66
2022-08-28T15:29:20.764Z,101077.25
2022-08-28T15:32:05.803Z,101081.16
2022-08-28T15:34:50.941Z,101095.13
2022-08-28T15:37:36.363Z,101070.47
2022-08-28T15:40:21.311Z,101067.75
2022-08-28T15:43:06.851Z,101062.44
2022-08-28T15:45:52.547Z,101102.78
2022-08-28T15:48:37.639Z,101092.44
2022-08-28T15:51:25.872Z,101092.41
2022-08-28T15:54:11.344Z,101096.63
2022-08-28T15:56:56.897Z,101106.53
2022-08-28T15:59:49.858Z,101090.75
2022-08-28T16:02:35.443Z,101103.00
2022-08-28T16:05:20.296Z,101089.28
2022-08-28T16:08:05.814Z,101094.03
2022-08-28T16:10:52.199Z,101112.16
2022-08-28T16:13:38.157Z,101108.75
2022-08-28T16:16:23.376Z,101106.47
2022-08-28T16:19:10.395Z,101109.41
2022-08-28T16:21:56.425Z,101127.00
2022-08-28T16:24:42.409Z,101106.44
2022-08-28T16:27:27.412Z,101100.47
2022-08-28T16:30:15.737Z,101118.81
2022-08-28T16:33:03.710Z,101133.56
2022-08-28T16:35:55.111Z,101102.81
2022-08-28T16:38:44.061Z,101110.69
2022-08-28T16:41:29.279Z,101123.50
2022-08-28T16:44:21.800Z,101156.50
2022-08-28T16:47:07.147Z,101107.28
2022-08-28T16:49:57.937Z,101141.22
2022-08-28T16:52:43.096Z,101106.03
2022-08-28T16:55:29.153Z,101120.91
2022-08-28T16:58:16.943Z,101095.16
2022-08-28T17:01:02.923Z,101108.69
2022-08-28T17:03:48.560Z,101105.34
2022-08-28T17:06:33.493Z,101090.72
2022-08-28T17:09:20.795Z,101088.25
2022-08-28T17:12:06.767Z,101106.59
2022-08-28T17:14:51.872Z,101113.47
2022-08-28T17:17:37.702Z,101111.56
2022-08-28T17:20:23.382Z,101100.47
2022-08-28T17:23:08.495Z,101099.84
2022-08-28T17:25:53.948Z,101126.03
2022-08-28T17:28:39.205Z,101131.31
2022-08-28T17:31:24.654Z,101131.38
2022-08-28T17:34:10.631Z,101121.91
2022-08-28T17:36:56.087Z,101169.13
2022-08-28T17:39:42.196Z,101115.88
2022-08-28T17:42:27.579Z,101109.22
2022-08-28T17:45:13.522Z,101136.50
2022-08-28T17:47:58.992Z,101172.28
2022-08-28T17:50:44.933Z,101164.41
2022-08-28T17:53:30.024Z,101165.31
2022-08-28T17:56:15.443Z,101156.50
2022-08-28T17:59:00.734Z,101175.66
2022-08-28T18:01:47.017Z,101153.16
2022-08-28T18:04:32.393Z,101152.41
2022-08-28T18:07:17.892Z,101153.50
2022-08-28T18:10:05.145Z,101149.31
2022-08-28T18:12:50.579Z,101153.81
2022-08-28T18:15:36.834Z,101153.03
2022-08-28T18:18:22.329Z,101156.53
2022-08-28T18:21:16.682Z,101160.91
2022-08-28T18:24:02.029Z,101159.47
2022-08-28T18:26:47.410Z,101173.53
2022-08-28T18:29:33.292Z,101179.69
2022-08-28T18:32:18.490Z,101185.81
2022-08-28T18:35:03.810Z,101181.56
2022-08-28T18:37:49.823Z,101167.78
2022-08-28T18:40:36.714Z,101197.78
2022-08-28T18:43:22.119Z,101200.59
2022-08-28T18:46:08.907Z,101211.06
2022-08-28T18:48:53.860Z,101209.28
2022-08-28T18:51:44.111Z,101202.31
2022-08-28T18:54:29.280Z,101196.25
2022-08-28T18:57:14.684Z,101232.19
2022-08-28T19:00:00.067Z,101226.97
2022-08-28T19:02:45.613Z,101230.50
2022-08-28T19:05:31.756Z,101226.16
2022-08-28T19:08:18.564Z,101228.81
2022-08-28T19:11:12.539Z,101234.22
2022-08-28T19:13:58.256Z,101247.41
2022-08-28T19:16:43.454Z,101244.84
2022-08-28T19:19:28.825Z,101253.63
2022-08-28T19:22:14.417Z,101262.34
2022-08-28T19:25:04.375Z,101262.47
2022-08-28T19:28:01.449Z,101252.88
2022-08-28T19:30:46.714Z,101264.22
2022-08-28T19:33:32.311Z,101265.31
2022-08-28T19:36:19.160Z,101268.88
2022-08-28T19:39:05.347Z,101265.41
2022-08-28T19:41:51.653Z,101282.91
2022-08-28T19:44:39.977Z,101283.84
2022-08-28T19:47:25.339Z,101286.50
2022-08-28T19:50:11.863Z,101282.19
2022-08-28T19:52:57.203Z,101286.59
2022-08-28T19:55:42.442Z,101304.97
2022-08-28T19:58:27.800Z,101295.41
2022-08-28T20:01:12.657Z,101307.69
2022-08-28T20:03:59.749Z,101311.16
2022-08-28T20:06:45.525Z,101316.41
2022-08-28T20:09:30.864Z,101318.13
2022-08-28T20:12:16.356Z,101319.03
2022-08-28T20:15:03.593Z,101339.09
2022-08-28T20:17:49.683Z,101327.81
2022-08-28T20:20:35.564Z,101335.69
2022-08-28T20:23:20.694Z,101332.22
2022-08-28T20:26:09.404Z,101330.47
2022-08-28T20:28:54.512Z,101336.56
2022-08-28T20:31:42.556Z,101345.31
2022-08-28T20:34:27.941Z,101346.16
2022-08-28T20:37:12.865Z,101334.84
2022-08-28T20:39:58.466Z,101333.09
2022-08-28T20:42:44.072Z,101340.97
2022-08-28T20:45:29.137Z,101344.44
2022-08-28T20:48:14.831Z,101340.09
2022-08-28T20:51:01.376Z,101348.81
2022-08-28T20:53:46.213Z,101360.97
2022-08-28T20:56:31.553Z,101354.00
2022-08-28T20:59:16.835Z,101353.13
2022-08-28T21:02:02.106Z,101347.91
2022-08-28T21:04:47.484Z,101349.63
2022-08-28T21:07:32.872Z,101344.34
2022-08-28T21:10:17.969Z,101350.41
2022-08-28T21:13:03.934Z,101370.28
2022-08-28T21:15:49.225Z,101379.63
2022-08-28T21:18:35.451Z,101373.34
2022-08-28T21:21:20.495Z,101389.72
2022-08-28T21:24:11.664Z,101396.56
2022-08-28T21:26:56.771Z,101401.75
2022-08-28T21:29:41.628Z,101405.31
2022-08-28T21:32:28.546Z,101401.75
2022-08-28T21:35:13.798Z,101396.53
2022-08-28T21:37:58.673Z,101399.91
2022-08-28T21:40:43.627Z,101384.31
2022-08-28T21:43:31.483Z,101387.75
2022-08-28T21:46:17.093Z,101387.84
2022-08-28T21:49:02.369Z,101382.72
2022-08-28T21:51:47.943Z,101382.81
2022-08-28T21:54:33.033Z,101368.16
2022-08-28T21:57:18.553Z,101380.31
2022-08-28T22:00:14.366Z,101385.44
2022-08-28T22:02:59.439Z,101379.19
2022-08-28T22:05:46.300Z,101396.22
2022-08-28T22:08:31.269Z,101387.41
2022-08-28T22:11:17.075Z,101389.97
2022-08-28T22:14:09.872Z,101403.91
2022-08-28T22:16:55.202Z,101406.50
2022-08-28T22:19:40.979Z,101407.19
2022-08-28T22:22:26.116Z,101401.97
2022-08-28T22:25:11.694Z,101393.31
2022-08-28T22:27:56.884Z,101388.13
2022-08-28T22:30:41.576Z,101396.53
2022-08-28T22:33:27.245Z,101399.63
2022-08-28T22:36:13.269Z,101398.72
2022-08-28T22:38:58.692Z,101401.16
2022-08-28T22:41:43.464Z,101410.41
2022-08-28T22:44:28.809Z,101404.22
2022-08-28T22:47:13.677Z,101406.66
2022-08-28T22:49:58.925Z,101405.13
2022-08-28T22:52:49.501Z,101395.84
2022-08-28T22:55:37.823Z,101389.97
2022-08-28T22:58:25.303Z,101378.09
2022-08-28T23:01:20.257Z,101367.00
2022-08-28T23:04:05.763Z,101368.00
2022-08-28T23:06:51.083Z,101364.66
2022-08-28T23:09:36.898Z,101363.72
2022-08-28T23:12:22.272Z,101381.38
2022-08-28T23:15:10.281Z,101391.38
2022-08-28T23:17:55.726Z,101398.25
2022-08-28T23:20:41.541Z,101392.25
2022-08-28T23:23:28.387Z,101391.63
2022-08-28T23:26:15.498Z,101370.97
2022-08-28T23:29:00.963Z,101352.03
2022-08-28T23:31:45.827Z,101365.97
2022-08-28T23:34:33.953Z,101369.44
2022-08-28T23:37:20.155Z,101368.56
2022-08-28T23:40:10.225Z,101378.00
2022-08-28T23:42:56.362Z,101370.97
2022-08-28T23:45:42.431Z,101364.06
2022-08-28T23:48:27.884Z,101359.81
2022-08-28T23:51:14.836Z,101341.66
2022-08-28T23:54:00.445Z,101335.59
2022-08-28T23:56:45.482Z,101345.06
2022-08-28T23:59:30.865Z,101348.34
